This is the latest recevied weather packets stored in our database for station/object F8KGK-5. If no packets are shown the sender has not sent any weather packets the latest 10 day(s).
| Time | Temp. | Humidity | Pressure | Rain* | Wind** | Luminosity | Snow |
|---|---|---|---|---|---|---|---|
| 1787648854 | 21.11° C | 58% | 1004.4 hPa | 0 mm | - | - | - |
| 1787647053 | 20.56° C | 58% | 1004.3 hPa | 0 mm | - | - | - |
| 1787645252 | 21.67° C | 58% | 1004.2 hPa | 0 mm | - | - | - |
| 1787643453 | 18.89° C | 63% | 1004.2 hPa | 0 mm | - | - | - |
| 1787641653 | 18.89° C | 70% | 1004.1 hPa | 0 mm | - | - | - |
| 1787639852 | 15.56° C | 74% | 1004 hPa | 0 mm | - | - | - |
| 1787638052 | 15° C | 75% | 1003.7 hPa | 0 mm | - | - | - |
| 1787636253 | 14.44° C | 77% | 1003.7 hPa | 0 mm | - | - | - |
| 1787634454 | 14.44° C | 77% | 1003.8 hPa | 0 mm | - | - | - |
| 1787632652 | 15° C | 74% | 1003.8 hPa | 0 mm | - | - | - |
| 1787630852 | 15.56° C | 72% | 1004 hPa | 0 mm | - | - | - |
| 1787629051 | 16.11° C | 69% | 1004 hPa | 0 mm | - | - | - |
| 1787627253 | 16.67° C | 64% | 1004.1 hPa | 0 mm | - | - | - |
| 1787625449 | 16.67° C | 63% | 1004.2 hPa | 0 mm | - | - | - |
| 1787623649 | 17.22° C | 62% | 1004.3 hPa | 0 mm | - | - | - |
| 1787621849 | 17.22° C | 62% | 1004.1 hPa | 0 mm | - | - | - |
| 1787620049 | 17.22° C | 62% | 1003.6 hPa | 0 mm | - | - | - |
| 1787618249 | 17.22° C | 62% | 1003.9 hPa | 0 mm | - | - | - |
| 1787616449 | 17.78° C | 61% | 1003.9 hPa | 0 mm | - | - | - |
| 1787614648 | 17.78° C | 59% | 1004.3 hPa | 0 mm | - | - | - |
| 1787612848 | 17.78° C | 58% | 1004.3 hPa | 0 mm | - | - | - |
| 1787611050 | 18.33° C | 56% | 1004.5 hPa | 0 mm | - | - | - |
| 1787609250 | 18.33° C | 56% | 1004.7 hPa | 0 mm | - | - | - |
| 1787607448 | 18.89° C | 55% | 1004.5 hPa | 0 mm | - | - | - |
| 1787605648 | 19.44° C | 54% | 1004.7 hPa | 0 mm | - | - | - |
* Rain latest hour (hover to see other rain measurements)
** Current wind speed in m/s (hover to see current wind gust speed)